sensor_id;sensor_type;location;lat;lon;timestamp;P1;durP1;ratioP1;P2;durP2;ratioP2
57341;SDS011;43175;51.002;18.316;2022-12-05T00:00:45;44.40;;;20.30;;
57341;SDS011;43175;51.002;18.316;2022-12-05T00:03:11;45.60;;;18.80;;
57341;SDS011;43175;51.002;18.316;2022-12-05T00:05:38;42.20;;;20.10;;
57341;SDS011;43175;51.002;18.316;2022-12-05T00:08:04;42.90;;;20.40;;
57341;SDS011;43175;51.002;18.316;2022-12-05T00:10:30;42.70;;;18.90;;
57341;SDS011;43175;51.002;18.316;2022-12-05T00:12:55;43.40;;;19.60;;
57341;SDS011;43175;51.002;18.316;2022-12-05T00:15:21;45.80;;;20.10;;
57341;SDS011;43175;51.002;18.316;2022-12-05T00:17:46;50.40;;;21.60;;
57341;SDS011;43175;51.002;18.316;2022-12-05T00:20:11;47.10;;;20.10;;
57341;SDS011;43175;51.002;18.316;2022-12-05T00:22:37;45.10;;;21.60;;
57341;SDS011;43175;51.002;18.316;2022-12-05T00:25:04;41.50;;;18.90;;
57341;SDS011;43175;51.002;18.316;2022-12-05T00:27:31;47.70;;;20.90;;
57341;SDS011;43175;51.002;18.316;2022-12-05T00:29:56;41.10;;;18.20;;
57341;SDS011;43175;51.002;18.316;2022-12-05T00:32:22;45.30;;;19.80;;
57341;SDS011;43175;51.002;18.316;2022-12-05T00:34:47;46.00;;;21.10;;
57341;SDS011;43175;51.002;18.316;2022-12-05T00:37:13;41.90;;;20.00;;
57341;SDS011;43175;51.002;18.316;2022-12-05T00:39:39;50.00;;;21.10;;
57341;SDS011;43175;51.002;18.316;2022-12-05T00:42:04;44.50;;;19.60;;
57341;SDS011;43175;51.002;18.316;2022-12-05T00:44:30;43.80;;;18.60;;
57341;SDS011;43175;51.002;18.316;2022-12-05T00:46:56;49.10;;;21.70;;
57341;SDS011;43175;51.002;18.316;2022-12-05T00:49:22;48.70;;;21.50;;
57341;SDS011;43175;51.002;18.316;2022-12-05T00:51:47;50.40;;;21.70;;
57341;SDS011;43175;51.002;18.316;2022-12-05T00:54:13;53.20;;;21.80;;
57341;SDS011;43175;51.002;18.316;2022-12-05T00:56:40;47.40;;;19.30;;
57341;SDS011;43175;51.002;18.316;2022-12-05T00:59:06;48.10;;;21.10;;
57341;SDS011;43175;51.002;18.316;2022-12-05T01:01:33;52.00;;;21.60;;
57341;SDS011;43175;51.002;18.316;2022-12-05T01:04:04;46.50;;;19.80;;
57341;SDS011;43175;51.002;18.316;2022-12-05T01:06:56;47.20;;;21.00;;
57341;SDS011;43175;51.002;18.316;2022-12-05T01:09:22;45.00;;;19.30;;
57341;SDS011;43175;51.002;18.316;2022-12-05T01:11:49;48.00;;;20.20;;
57341;SDS011;43175;51.002;18.316;2022-12-05T01:14:16;53.20;;;22.50;;
57341;SDS011;43175;51.002;18.316;2022-12-05T01:16:44;49.40;;;20.50;;
57341;SDS011;43175;51.002;18.316;2022-12-05T01:19:11;46.70;;;20.60;;
57341;SDS011;43175;51.002;18.316;2022-12-05T01:21:38;44.80;;;20.80;;
57341;SDS011;43175;51.002;18.316;2022-12-05T01:24:04;48.50;;;20.90;;
57341;SDS011;43175;51.002;18.316;2022-12-05T01:26:30;50.60;;;21.10;;
57341;SDS011;43175;51.002;18.316;2022-12-05T01:28:57;48.90;;;21.10;;
57341;SDS011;43175;51.002;18.316;2022-12-05T01:33:53;47.40;;;20.70;;
57341;SDS011;43175;51.002;18.316;2022-12-05T01:36:19;47.80;;;21.10;;
57341;SDS011;43175;51.002;18.316;2022-12-05T01:38:46;44.00;;;20.60;;
57341;SDS011;43175;51.002;18.316;2022-12-05T01:41:19;47.30;;;20.80;;
57341;SDS011;43175;51.002;18.316;2022-12-05T01:46:30;44.40;;;19.60;;
57341;SDS011;43175;51.002;18.316;2022-12-05T01:51:54;45.50;;;18.70;;
57341;SDS011;43175;51.002;18.316;2022-12-05T01:54:30;42.30;;;18.10;;
57341;SDS011;43175;51.002;18.316;2022-12-05T01:56:57;50.30;;;21.00;;
57341;SDS011;43175;51.002;18.316;2022-12-05T01:59:26;45.40;;;20.20;;
57341;SDS011;43175;51.002;18.316;2022-12-05T02:01:53;45.10;;;20.70;;
57341;SDS011;43175;51.002;18.316;2022-12-05T02:04:19;42.50;;;19.60;;
57341;SDS011;43175;51.002;18.316;2022-12-05T02:06:45;45.80;;;20.20;;
57341;SDS011;43175;51.002;18.316;2022-12-05T02:09:11;50.90;;;19.90;;
57341;SDS011;43175;51.002;18.316;2022-12-05T02:11:41;46.40;;;21.60;;
57341;SDS011;43175;51.002;18.316;2022-12-05T02:28:06;43.80;;;20.40;;
57341;SDS011;43175;51.002;18.316;2022-12-05T02:30:45;51.20;;;20.30;;
57341;SDS011;43175;51.002;18.316;2022-12-05T02:38:43;46.20;;;19.80;;
57341;SDS011;43175;51.002;18.316;2022-12-05T02:46:34;44.90;;;19.70;;
57341;SDS011;43175;51.002;18.316;2022-12-05T02:49:08;43.70;;;20.10;;
57341;SDS011;43175;51.002;18.316;2022-12-05T02:51:43;46.90;;;20.50;;
57341;SDS011;43175;51.002;18.316;2022-12-05T02:54:12;44.60;;;20.30;;
57341;SDS011;43175;51.002;18.316;2022-12-05T02:56:42;41.10;;;19.10;;
57341;SDS011;43175;51.002;18.316;2022-12-05T02:59:09;45.10;;;20.30;;
57341;SDS011;43175;51.002;18.316;2022-12-05T03:01:34;48.40;;;20.80;;
57341;SDS011;43175;51.002;18.316;2022-12-05T03:04:00;45.00;;;20.30;;
57341;SDS011;43175;51.002;18.316;2022-12-05T03:06:32;52.60;;;21.70;;
57341;SDS011;43175;51.002;18.316;2022-12-05T03:09:05;46.30;;;20.60;;
57341;SDS011;43175;51.002;18.316;2022-12-05T03:11:41;50.80;;;22.20;;
57341;SDS011;43175;51.002;18.316;2022-12-05T03:14:16;46.20;;;21.50;;
57341;SDS011;43175;51.002;18.316;2022-12-05T03:16:56;49.40;;;22.20;;
57341;SDS011;43175;51.002;18.316;2022-12-05T03:19:25;50.50;;;22.10;;
57341;SDS011;43175;51.002;18.316;2022-12-05T03:22:18;51.50;;;22.30;;
57341;SDS011;43175;51.002;18.316;2022-12-05T03:24:47;50.10;;;21.50;;
57341;SDS011;43175;51.002;18.316;2022-12-05T03:27:20;51.80;;;21.00;;
57341;SDS011;43175;51.002;18.316;2022-12-05T03:32:23;49.80;;;22.40;;
57341;SDS011;43175;51.002;18.316;2022-12-05T03:34:57;46.90;;;20.10;;
57341;SDS011;43175;51.002;18.316;2022-12-05T03:40:12;46.50;;;21.20;;
57341;SDS011;43175;51.002;18.316;2022-12-05T03:42:49;43.70;;;19.40;;
57341;SDS011;43175;51.002;18.316;2022-12-05T03:45:22;47.60;;;20.40;;
57341;SDS011;43175;51.002;18.316;2022-12-05T03:47:57;45.30;;;20.70;;
57341;SDS011;43175;51.002;18.316;2022-12-05T03:50:25;49.50;;;21.00;;
57341;SDS011;43175;51.002;18.316;2022-12-05T03:52:57;47.40;;;21.20;;
57341;SDS011;43175;51.002;18.316;2022-12-05T03:55:25;47.00;;;21.00;;
57341;SDS011;43175;51.002;18.316;2022-12-05T03:58:02;46.10;;;20.70;;
57341;SDS011;43175;51.002;18.316;2022-12-05T04:00:33;51.10;;;21.30;;
57341;SDS011;43175;51.002;18.316;2022-12-05T04:03:03;45.60;;;20.90;;
57341;SDS011;43175;51.002;18.316;2022-12-05T04:05:37;46.60;;;19.90;;
57341;SDS011;43175;51.002;18.316;2022-12-05T04:08:09;48.30;;;20.80;;
57341;SDS011;43175;51.002;18.316;2022-12-05T04:10:48;47.10;;;20.40;;
57341;SDS011;43175;51.002;18.316;2022-12-05T04:16:11;49.70;;;21.40;;
57341;SDS011;43175;51.002;18.316;2022-12-05T04:19:16;44.50;;;20.10;;
57341;SDS011;43175;51.002;18.316;2022-12-05T04:21:51;46.20;;;21.00;;
57341;SDS011;43175;51.002;18.316;2022-12-05T04:24:19;47.20;;;21.00;;
57341;SDS011;43175;51.002;18.316;2022-12-05T04:27:17;50.70;;;21.30;;
57341;SDS011;43175;51.002;18.316;2022-12-05T04:30:02;48.20;;;20.30;;
57341;SDS011;43175;51.002;18.316;2022-12-05T04:32:32;45.10;;;19.50;;
57341;SDS011;43175;51.002;18.316;2022-12-05T04:35:02;47.80;;;20.60;;
57341;SDS011;43175;51.002;18.316;2022-12-05T04:37:34;46.80;;;20.80;;
57341;SDS011;43175;51.002;18.316;2022-12-05T04:40:06;48.70;;;21.20;;
57341;SDS011;43175;51.002;18.316;2022-12-05T04:42:38;47.00;;;21.40;;
57341;SDS011;43175;51.002;18.316;2022-12-05T04:45:05;46.40;;;20.90;;
57341;SDS011;43175;51.002;18.316;2022-12-05T04:47:36;50.80;;;21.40;;
57341;SDS011;43175;51.002;18.316;2022-12-05T04:50:05;46.40;;;20.50;;
57341;SDS011;43175;51.002;18.316;2022-12-05T04:52:32;48.40;;;21.20;;
57341;SDS011;43175;51.002;18.316;2022-12-05T04:57:46;48.00;;;21.40;;
57341;SDS011;43175;51.002;18.316;2022-12-05T05:00:15;49.00;;;21.20;;
57341;SDS011;43175;51.002;18.316;2022-12-05T05:02:42;48.60;;;21.90;;
57341;SDS011;43175;51.002;18.316;2022-12-05T05:05:12;47.90;;;21.40;;
57341;SDS011;43175;51.002;18.316;2022-12-05T05:07:50;44.70;;;20.50;;
57341;SDS011;43175;51.002;18.316;2022-12-05T05:10:22;45.60;;;20.40;;
57341;SDS011;43175;51.002;18.316;2022-12-05T05:12:57;46.30;;;21.90;;
57341;SDS011;43175;51.002;18.316;2022-12-05T05:15:23;47.20;;;21.70;;
57341;SDS011;43175;51.002;18.316;2022-12-05T05:17:48;46.70;;;21.90;;
57341;SDS011;43175;51.002;18.316;2022-12-05T05:20:14;51.40;;;23.20;;
57341;SDS011;43175;51.002;18.316;2022-12-05T05:22:49;43.20;;;19.80;;
57341;SDS011;43175;51.002;18.316;2022-12-05T05:25:15;45.50;;;21.50;;
57341;SDS011;43175;51.002;18.316;2022-12-05T05:27:41;48.00;;;21.10;;
57341;SDS011;43175;51.002;18.316;2022-12-05T05:30:06;49.30;;;21.60;;
57341;SDS011;43175;51.002;18.316;2022-12-05T05:32:33;45.30;;;20.80;;
57341;SDS011;43175;51.002;18.316;2022-12-05T05:34:58;45.90;;;20.60;;
57341;SDS011;43175;51.002;18.316;2022-12-05T05:37:24;43.20;;;20.20;;
57341;SDS011;43175;51.002;18.316;2022-12-05T05:39:49;45.40;;;20.50;;
57341;SDS011;43175;51.002;18.316;2022-12-05T05:42:15;42.90;;;20.10;;
57341;SDS011;43175;51.002;18.316;2022-12-05T05:44:40;44.40;;;20.30;;
57341;SDS011;43175;51.002;18.316;2022-12-05T05:47:05;42.40;;;19.70;;
57341;SDS011;43175;51.002;18.316;2022-12-05T05:49:31;43.70;;;21.20;;
57341;SDS011;43175;51.002;18.316;2022-12-05T05:51:56;43.40;;;19.40;;
57341;SDS011;43175;51.002;18.316;2022-12-05T05:54:22;47.10;;;21.40;;
57341;SDS011;43175;51.002;18.316;2022-12-05T05:56:47;41.10;;;19.00;;
57341;SDS011;43175;51.002;18.316;2022-12-05T05:59:13;48.50;;;20.40;;
57341;SDS011;43175;51.002;18.316;2022-12-05T06:01:38;47.80;;;21.60;;
57341;SDS011;43175;51.002;18.316;2022-12-05T06:04:04;44.30;;;21.30;;
57341;SDS011;43175;51.002;18.316;2022-12-05T06:06:29;46.10;;;21.20;;
57341;SDS011;43175;51.002;18.316;2022-12-05T06:08:55;50.20;;;21.70;;
57341;SDS011;43175;51.002;18.316;2022-12-05T06:11:24;49.10;;;22.00;;
57341;SDS011;43175;51.002;18.316;2022-12-05T06:13:55;49.70;;;20.70;;
57341;SDS011;43175;51.002;18.316;2022-12-05T06:16:21;46.50;;;20.50;;
57341;SDS011;43175;51.002;18.316;2022-12-05T06:18:47;55.40;;;22.70;;
57341;SDS011;43175;51.002;18.316;2022-12-05T06:21:14;44.30;;;18.70;;
57341;SDS011;43175;51.002;18.316;2022-12-05T06:23:39;49.40;;;22.20;;
57341;SDS011;43175;51.002;18.316;2022-12-05T06:26:06;52.20;;;22.10;;
57341;SDS011;43175;51.002;18.316;2022-12-05T06:28:35;51.10;;;22.10;;
57341;SDS011;43175;51.002;18.316;2022-12-05T06:31:06;54.30;;;23.80;;
57341;SDS011;43175;51.002;18.316;2022-12-05T06:33:35;53.60;;;21.30;;
57341;SDS011;43175;51.002;18.316;2022-12-05T06:36:01;57.50;;;24.50;;
57341;SDS011;43175;51.002;18.316;2022-12-05T06:38:28;57.30;;;23.10;;
57341;SDS011;43175;51.002;18.316;2022-12-05T06:40:54;54.50;;;24.50;;
57341;SDS011;43175;51.002;18.316;2022-12-05T06:43:19;52.00;;;23.70;;
57341;SDS011;43175;51.002;18.316;2022-12-05T06:45:45;57.40;;;24.40;;
57341;SDS011;43175;51.002;18.316;2022-12-05T06:48:10;60.20;;;25.90;;
57341;SDS011;43175;51.002;18.316;2022-12-05T06:50:36;56.80;;;23.70;;
57341;SDS011;43175;51.002;18.316;2022-12-05T06:53:01;64.50;;;24.60;;
57341;SDS011;43175;51.002;18.316;2022-12-05T06:55:26;55.80;;;24.00;;
57341;SDS011;43175;51.002;18.316;2022-12-05T06:57:52;59.00;;;24.90;;
57341;SDS011;43175;51.002;18.316;2022-12-05T07:00:18;54.50;;;23.90;;
57341;SDS011;43175;51.002;18.316;2022-12-05T07:03:02;57.60;;;24.50;;
57341;SDS011;43175;51.002;18.316;2022-12-05T07:05:28;58.70;;;25.30;;
57341;SDS011;43175;51.002;18.316;2022-12-05T07:07:53;60.60;;;27.30;;
57341;SDS011;43175;51.002;18.316;2022-12-05T07:10:18;69.00;;;28.70;;
57341;SDS011;43175;51.002;18.316;2022-12-05T07:12:44;64.40;;;27.00;;
57341;SDS011;43175;51.002;18.316;2022-12-05T07:15:09;63.90;;;28.40;;
57341;SDS011;43175;51.002;18.316;2022-12-05T07:17:36;60.00;;;26.50;;
57341;SDS011;43175;51.002;18.316;2022-12-05T07:20:03;57.90;;;24.90;;
57341;SDS011;43175;51.002;18.316;2022-12-05T07:22:30;57.80;;;24.10;;
57341;SDS011;43175;51.002;18.316;2022-12-05T07:24:55;53.80;;;23.20;;
57341;SDS011;43175;51.002;18.316;2022-12-05T07:27:21;51.80;;;22.50;;
57341;SDS011;43175;51.002;18.316;2022-12-05T07:29:47;57.80;;;25.20;;
57341;SDS011;43175;51.002;18.316;2022-12-05T07:32:12;57.80;;;25.40;;
57341;SDS011;43175;51.002;18.316;2022-12-05T07:34:38;49.80;;;21.50;;
57341;SDS011;43175;51.002;18.316;2022-12-05T07:37:03;49.10;;;21.90;;
57341;SDS011;43175;51.002;18.316;2022-12-05T07:39:29;47.20;;;20.30;;
57341;SDS011;43175;51.002;18.316;2022-12-05T07:41:54;47.40;;;21.70;;
57341;SDS011;43175;51.002;18.316;2022-12-05T07:44:20;47.00;;;19.80;;
57341;SDS011;43175;51.002;18.316;2022-12-05T07:46:45;44.90;;;20.90;;
57341;SDS011;43175;51.002;18.316;2022-12-05T07:49:11;46.30;;;21.10;;
57341;SDS011;43175;51.002;18.316;2022-12-05T07:51:36;46.60;;;22.10;;
57341;SDS011;43175;51.002;18.316;2022-12-05T07:54:03;47.80;;;21.50;;
57341;SDS011;43175;51.002;18.316;2022-12-05T07:56:29;47.00;;;21.30;;
57341;SDS011;43175;51.002;18.316;2022-12-05T07:58:54;47.70;;;21.60;;
57341;SDS011;43175;51.002;18.316;2022-12-05T08:01:21;47.50;;;20.00;;
57341;SDS011;43175;51.002;18.316;2022-12-05T08:03:48;47.70;;;20.40;;
57341;SDS011;43175;51.002;18.316;2022-12-05T08:06:18;45.20;;;20.90;;
57341;SDS011;43175;51.002;18.316;2022-12-05T08:08:45;44.30;;;20.70;;
57341;SDS011;43175;51.002;18.316;2022-12-05T08:11:21;43.40;;;20.50;;
57341;SDS011;43175;51.002;18.316;2022-12-05T08:13:49;46.60;;;21.80;;
57341;SDS011;43175;51.002;18.316;2022-12-05T08:16:15;45.60;;;19.80;;
57341;SDS011;43175;51.002;18.316;2022-12-05T08:18:43;42.10;;;21.00;;
57341;SDS011;43175;51.002;18.316;2022-12-05T08:21:13;44.60;;;20.50;;
57341;SDS011;43175;51.002;18.316;2022-12-05T08:23:40;41.70;;;20.20;;
57341;SDS011;43175;51.002;18.316;2022-12-05T08:26:07;43.20;;;20.10;;
57341;SDS011;43175;51.002;18.316;2022-12-05T08:28:34;42.50;;;20.50;;
57341;SDS011;43175;51.002;18.316;2022-12-05T08:31:03;43.90;;;20.00;;
57341;SDS011;43175;51.002;18.316;2022-12-05T08:33:30;48.00;;;21.20;;
57341;SDS011;43175;51.002;18.316;2022-12-05T08:35:56;50.40;;;22.70;;
57341;SDS011;43175;51.002;18.316;2022-12-05T08:38:21;43.40;;;20.40;;
57341;SDS011;43175;51.002;18.316;2022-12-05T08:40:46;46.80;;;22.70;;
57341;SDS011;43175;51.002;18.316;2022-12-05T08:43:12;47.40;;;22.10;;
57341;SDS011;43175;51.002;18.316;2022-12-05T08:45:37;43.50;;;20.70;;
57341;SDS011;43175;51.002;18.316;2022-12-05T08:48:03;47.80;;;23.30;;
57341;SDS011;43175;51.002;18.316;2022-12-05T08:50:29;46.60;;;21.50;;
57341;SDS011;43175;51.002;18.316;2022-12-05T08:52:55;46.80;;;23.10;;
57341;SDS011;43175;51.002;18.316;2022-12-05T08:55:20;47.70;;;23.90;;
57341;SDS011;43175;51.002;18.316;2022-12-05T08:57:46;45.50;;;23.60;;
57341;SDS011;43175;51.002;18.316;2022-12-05T09:00:11;48.50;;;23.70;;
57341;SDS011;43175;51.002;18.316;2022-12-05T09:02:38;44.30;;;20.80;;
57341;SDS011;43175;51.002;18.316;2022-12-05T09:05:03;44.70;;;22.20;;
57341;SDS011;43175;51.002;18.316;2022-12-05T09:07:29;45.00;;;21.10;;
57341;SDS011;43175;51.002;18.316;2022-12-05T09:09:54;46.30;;;22.00;;
57341;SDS011;43175;51.002;18.316;2022-12-05T09:12:20;45.60;;;22.20;;
57341;SDS011;43175;51.002;18.316;2022-12-05T09:14:45;46.10;;;22.20;;
57341;SDS011;43175;51.002;18.316;2022-12-05T09:17:11;47.70;;;22.90;;
57341;SDS011;43175;51.002;18.316;2022-12-05T09:19:36;44.70;;;21.60;;
57341;SDS011;43175;51.002;18.316;2022-12-05T09:22:03;44.60;;;22.00;;
57341;SDS011;43175;51.002;18.316;2022-12-05T09:24:29;42.40;;;21.30;;
57341;SDS011;43175;51.002;18.316;2022-12-05T09:26:54;46.70;;;22.30;;
57341;SDS011;43175;51.002;18.316;2022-12-05T09:29:20;45.50;;;22.70;;
57341;SDS011;43175;51.002;18.316;2022-12-05T09:31:47;48.20;;;23.10;;
57341;SDS011;43175;51.002;18.316;2022-12-05T09:34:14;46.30;;;22.80;;
57341;SDS011;43175;51.002;18.316;2022-12-05T09:36:42;43.50;;;21.30;;
57341;SDS011;43175;51.002;18.316;2022-12-05T09:39:08;47.70;;;23.80;;
57341;SDS011;43175;51.002;18.316;2022-12-05T09:49:52;47.00;;;23.50;;
57341;SDS011;43175;51.002;18.316;2022-12-05T09:52:24;52.60;;;25.10;;
57341;SDS011;43175;51.002;18.316;2022-12-05T09:54:53;49.00;;;25.20;;
57341;SDS011;43175;51.002;18.316;2022-12-05T09:57:23;51.00;;;25.90;;
57341;SDS011;43175;51.002;18.316;2022-12-05T10:00:03;46.80;;;23.70;;
57341;SDS011;43175;51.002;18.316;2022-12-05T10:10:45;41.70;;;21.30;;
57341;SDS011;43175;51.002;18.316;2022-12-05T10:13:20;41.00;;;21.30;;
57341;SDS011;43175;51.002;18.316;2022-12-05T10:15:52;39.80;;;20.50;;
57341;SDS011;43175;51.002;18.316;2022-12-05T10:21:10;41.50;;;21.00;;
57341;SDS011;43175;51.002;18.316;2022-12-05T10:26:18;40.80;;;20.90;;
57341;SDS011;43175;51.002;18.316;2022-12-05T10:31:33;42.10;;;21.30;;
57341;SDS011;43175;51.002;18.316;2022-12-05T10:36:53;41.80;;;21.70;;
57341;SDS011;43175;51.002;18.316;2022-12-05T10:39:21;38.00;;;20.70;;
57341;SDS011;43175;51.002;18.316;2022-12-05T10:41:47;38.30;;;20.50;;
57341;SDS011;43175;51.002;18.316;2022-12-05T10:44:13;41.00;;;20.80;;
57341;SDS011;43175;51.002;18.316;2022-12-05T10:46:38;41.20;;;21.70;;
57341;SDS011;43175;51.002;18.316;2022-12-05T10:49:07;40.90;;;20.80;;
57341;SDS011;43175;51.002;18.316;2022-12-05T10:51:35;37.30;;;20.00;;
57341;SDS011;43175;51.002;18.316;2022-12-05T10:54:04;39.80;;;21.00;;
57341;SDS011;43175;51.002;18.316;2022-12-05T10:56:43;40.80;;;20.40;;
57341;SDS011;43175;51.002;18.316;2022-12-05T10:59:16;40.10;;;20.80;;
57341;SDS011;43175;51.002;18.316;2022-12-05T11:01:45;43.10;;;20.60;;
57341;SDS011;43175;51.002;18.316;2022-12-05T11:04:20;39.00;;;20.00;;
57341;SDS011;43175;51.002;18.316;2022-12-05T11:06:57;41.60;;;21.80;;
57341;SDS011;43175;51.002;18.316;2022-12-05T11:09:26;41.60;;;21.70;;
57341;SDS011;43175;51.002;18.316;2022-12-05T11:12:00;39.70;;;20.00;;
57341;SDS011;43175;51.002;18.316;2022-12-05T11:14:28;37.50;;;20.00;;
57341;SDS011;43175;51.002;18.316;2022-12-05T11:16:57;37.30;;;19.30;;
57341;SDS011;43175;51.002;18.316;2022-12-05T11:19:41;38.20;;;19.40;;
57341;SDS011;43175;51.002;18.316;2022-12-05T11:22:09;36.20;;;17.90;;
57341;SDS011;43175;51.002;18.316;2022-12-05T11:24:41;36.70;;;19.00;;
57341;SDS011;43175;51.002;18.316;2022-12-05T11:29:41;36.30;;;18.50;;
57341;SDS011;43175;51.002;18.316;2022-12-05T11:32:18;36.20;;;17.90;;
57341;SDS011;43175;51.002;18.316;2022-12-05T11:34:48;35.90;;;18.20;;
57341;SDS011;43175;51.002;18.316;2022-12-05T11:37:19;36.00;;;19.70;;
57341;SDS011;43175;51.002;18.316;2022-12-05T11:39:50;34.80;;;18.30;;
57341;SDS011;43175;51.002;18.316;2022-12-05T11:42:37;35.00;;;19.00;;
57341;SDS011;43175;51.002;18.316;2022-12-05T11:51:04;41.20;;;20.10;;
57341;SDS011;43175;51.002;18.316;2022-12-05T12:19:32;41.60;;;22.80;;
57341;SDS011;43175;51.002;18.316;2022-12-05T12:25:07;57.90;;;28.50;;
57341;SDS011;43175;51.002;18.316;2022-12-05T12:27:55;57.60;;;29.60;;
57341;SDS011;43175;51.002;18.316;2022-12-05T12:30:46;48.80;;;27.10;;
57341;SDS011;43175;51.002;18.316;2022-12-05T12:33:36;44.50;;;24.90;;
57341;SDS011;43175;51.002;18.316;2022-12-05T12:36:09;43.80;;;23.20;;
57341;SDS011;43175;51.002;18.316;2022-12-05T12:44:08;41.20;;;22.40;;
57341;SDS011;43175;51.002;18.316;2022-12-05T12:47:03;36.00;;;20.60;;
57341;SDS011;43175;51.002;18.316;2022-12-05T12:52:14;36.40;;;20.60;;
57341;SDS011;43175;51.002;18.316;2022-12-05T12:55:04;37.40;;;20.70;;
57341;SDS011;43175;51.002;18.316;2022-12-05T13:01:02;61.90;;;34.60;;
57341;SDS011;43175;51.002;18.316;2022-12-05T13:03:41;68.80;;;42.20;;
57341;SDS011;43175;51.002;18.316;2022-12-05T13:06:12;44.50;;;26.20;;
57341;SDS011;43175;51.002;18.316;2022-12-05T13:11:14;40.00;;;22.50;;
57341;SDS011;43175;51.002;18.316;2022-12-05T13:13:44;43.80;;;23.50;;
57341;SDS011;43175;51.002;18.316;2022-12-05T13:16:15;37.20;;;21.20;;
57341;SDS011;43175;51.002;18.316;2022-12-05T13:18:52;43.30;;;22.50;;
57341;SDS011;43175;51.002;18.316;2022-12-05T13:21:21;40.40;;;22.40;;
57341;SDS011;43175;51.002;18.316;2022-12-05T13:23:49;42.60;;;23.50;;
57341;SDS011;43175;51.002;18.316;2022-12-05T13:26:15;41.40;;;23.30;;
57341;SDS011;43175;51.002;18.316;2022-12-05T13:28:49;38.70;;;22.20;;
57341;SDS011;43175;51.002;18.316;2022-12-05T13:31:17;41.00;;;22.50;;
57341;SDS011;43175;51.002;18.316;2022-12-05T13:36:37;47.30;;;25.60;;
57341;SDS011;43175;51.002;18.316;2022-12-05T13:39:22;61.10;;;29.00;;
57341;SDS011;43175;51.002;18.316;2022-12-05T13:42:17;60.70;;;29.40;;
57341;SDS011;43175;51.002;18.316;2022-12-05T13:50:33;60.90;;;29.30;;
57341;SDS011;43175;51.002;18.316;2022-12-05T13:53:21;75.10;;;34.20;;
57341;SDS011;43175;51.002;18.316;2022-12-05T13:58:46;85.60;;;39.70;;
57341;SDS011;43175;51.002;18.316;2022-12-05T14:12:26;58.10;;;31.90;;
57341;SDS011;43175;51.002;18.316;2022-12-05T14:15:22;52.80;;;28.70;;
57341;SDS011;43175;51.002;18.316;2022-12-05T14:20:07;43.10;;;23.00;;
57341;SDS011;43175;51.002;18.316;2022-12-05T14:22:47;43.00;;;24.50;;
57341;SDS011;43175;51.002;18.316;2022-12-05T14:33:31;39.80;;;22.10;;
57341;SDS011;43175;51.002;18.316;2022-12-05T14:35:57;42.80;;;22.80;;
57341;SDS011;43175;51.002;18.316;2022-12-05T14:38:31;43.20;;;24.00;;
57341;SDS011;43175;51.002;18.316;2022-12-05T14:41:10;42.80;;;23.20;;
57341;SDS011;43175;51.002;18.316;2022-12-05T14:43:39;42.50;;;23.70;;
57341;SDS011;43175;51.002;18.316;2022-12-05T14:46:05;52.20;;;27.80;;
57341;SDS011;43175;51.002;18.316;2022-12-05T14:48:38;59.20;;;31.10;;
57341;SDS011;43175;51.002;18.316;2022-12-05T14:54:14;49.80;;;27.10;;
57341;SDS011;43175;51.002;18.316;2022-12-05T14:56:45;48.20;;;26.00;;
57341;SDS011;43175;51.002;18.316;2022-12-05T15:01:51;44.90;;;25.20;;
57341;SDS011;43175;51.002;18.316;2022-12-05T15:07:12;48.10;;;25.10;;
57341;SDS011;43175;51.002;18.316;2022-12-05T15:14:56;53.30;;;26.90;;
57341;SDS011;43175;51.002;18.316;2022-12-05T15:17:29;52.80;;;28.10;;
57341;SDS011;43175;51.002;18.316;2022-12-05T15:20:10;56.10;;;29.30;;
57341;SDS011;43175;51.002;18.316;2022-12-05T15:22:39;50.00;;;26.90;;
57341;SDS011;43175;51.002;18.316;2022-12-05T15:25:19;52.10;;;28.10;;
57341;SDS011;43175;51.002;18.316;2022-12-05T15:27:53;51.00;;;24.40;;
57341;SDS011;43175;51.002;18.316;2022-12-05T15:30:24;54.60;;;29.20;;
57341;SDS011;43175;51.002;18.316;2022-12-05T15:32:50;56.00;;;29.60;;
57341;SDS011;43175;51.002;18.316;2022-12-05T15:35:16;55.40;;;31.30;;
57341;SDS011;43175;51.002;18.316;2022-12-05T15:40:13;62.40;;;35.10;;
57341;SDS011;43175;51.002;18.316;2022-12-05T15:42:45;69.10;;;36.70;;
57341;SDS011;43175;51.002;18.316;2022-12-05T15:47:39;63.40;;;33.90;;
57341;SDS011;43175;51.002;18.316;2022-12-05T15:50:12;69.60;;;34.80;;
57341;SDS011;43175;51.002;18.316;2022-12-05T15:55:17;78.00;;;43.60;;
57341;SDS011;43175;51.002;18.316;2022-12-05T15:57:52;67.30;;;37.30;;
57341;SDS011;43175;51.002;18.316;2022-12-05T16:00:22;70.10;;;39.20;;
57341;SDS011;43175;51.002;18.316;2022-12-05T16:02:56;68.50;;;39.50;;
57341;SDS011;43175;51.002;18.316;2022-12-05T16:05:46;67.10;;;36.40;;
57341;SDS011;43175;51.002;18.316;2022-12-05T16:08:12;66.90;;;36.90;;
57341;SDS011;43175;51.002;18.316;2022-12-05T16:10:38;69.50;;;37.00;;
57341;SDS011;43175;51.002;18.316;2022-12-05T16:13:05;70.40;;;37.00;;
57341;SDS011;43175;51.002;18.316;2022-12-05T16:15:31;69.80;;;36.60;;
57341;SDS011;43175;51.002;18.316;2022-12-05T16:17:58;70.20;;;36.50;;
57341;SDS011;43175;51.002;18.316;2022-12-05T16:20:43;66.40;;;35.10;;
57341;SDS011;43175;51.002;18.316;2022-12-05T16:26:20;68.20;;;36.40;;
57341;SDS011;43175;51.002;18.316;2022-12-05T16:28:55;67.50;;;35.90;;
57341;SDS011;43175;51.002;18.316;2022-12-05T16:31:22;66.10;;;35.30;;
57341;SDS011;43175;51.002;18.316;2022-12-05T16:33:57;68.80;;;37.00;;
57341;SDS011;43175;51.002;18.316;2022-12-05T16:36:24;68.70;;;37.10;;
57341;SDS011;43175;51.002;18.316;2022-12-05T16:38:49;68.30;;;36.00;;
57341;SDS011;43175;51.002;18.316;2022-12-05T16:41:14;62.70;;;34.50;;
57341;SDS011;43175;51.002;18.316;2022-12-05T16:43:42;62.20;;;34.90;;
57341;SDS011;43175;51.002;18.316;2022-12-05T16:48:34;68.10;;;36.60;;
57341;SDS011;43175;51.002;18.316;2022-12-05T16:53:35;69.00;;;35.20;;
57341;SDS011;43175;51.002;18.316;2022-12-05T16:56:02;66.50;;;34.90;;
57341;SDS011;43175;51.002;18.316;2022-12-05T16:58:29;69.20;;;35.10;;
57341;SDS011;43175;51.002;18.316;2022-12-05T17:01:00;63.90;;;34.90;;
57341;SDS011;43175;51.002;18.316;2022-12-05T17:03:28;69.50;;;37.30;;
57341;SDS011;43175;51.002;18.316;2022-12-05T17:05:54;69.60;;;35.80;;
57341;SDS011;43175;51.002;18.316;2022-12-05T17:08:20;69.40;;;37.40;;
57341;SDS011;43175;51.002;18.316;2022-12-05T17:10:45;70.40;;;35.90;;
57341;SDS011;43175;51.002;18.316;2022-12-05T17:13:13;71.40;;;38.20;;
57341;SDS011;43175;51.002;18.316;2022-12-05T17:15:39;68.30;;;36.10;;
57341;SDS011;43175;51.002;18.316;2022-12-05T17:18:09;71.80;;;36.50;;
57341;SDS011;43175;51.002;18.316;2022-12-05T17:20:41;72.70;;;35.90;;
57341;SDS011;43175;51.002;18.316;2022-12-05T17:23:11;74.70;;;36.80;;
57341;SDS011;43175;51.002;18.316;2022-12-05T17:25:39;67.60;;;34.40;;
57341;SDS011;43175;51.002;18.316;2022-12-05T17:28:07;59.90;;;33.10;;